Latest Weather Observations for Sheffield

IDT60801

Issued at 11:05 pm EST Wednesday 17 September 2014 (issued every 30 minutes, with the page automatically refreshed every 10 minutes)

About weather observations | Map of weather stations | Latest weather observations for TAS | Other Formats
Station Details ID: 091291 Name: SHEFFIELD SCHOOL FARM Lat: -41.39 Lon: 146.32 Height: 294.2 m
Data from the previous 72 hours. | See also: Recent months at Sheffield
Date/Time
EST
Temp
°C
App
Temp
°C
Dew
Point
Rel
Hum
%
Delta-T
°C
Wind Press
QNH
hPa
Press
MSL
hPa
Rain
since 9 am
mm
Dir
 
Spd
km/h
Gust
km/h
Spd
kts
Gust
kts
17/11:00pm 3.7 -0.4 0.1 77 1.4 WNW 11 26 6 14 1010.3 1010.6 0.0
17/10:30pm 3.3 -1.0 1.0 85 0.9 W 13 17 7 9 1010.3 1010.6 0.0
17/10:00pm 3.1 -1.1 1.5 89 0.6 WSW 13 24 7 13 1010.4 1010.7 0.0
17/09:30pm 2.6 -1.2 1.9 95 0.3 W 11 17 6 9 1009.8 1010.1 0.0
17/09:00pm 2.6 -2.3 2.3 98 0.1 W 17 20 9 11 1009.5 1009.8 0.0
17/08:30pm 2.7 -1.5 1.8 94 0.4 W 13 19 7 10 1009.6 1009.9 0.0
17/08:00pm 3.6 -1.6 2.6 93 0.4 W 19 24 10 13 1009.3 1009.6 0.0
17/07:30pm 3.2 -2.3 1.7 90 0.6 W 20 26 11 14 1009.0 1009.3 0.0
17/07:00pm 3.5 -3.2 1.2 85 0.9 WSW 26 37 14 20 1008.5 1008.8 0.0
17/06:32pm 4.6 -3.0 0.6 75 1.6 WSW 30 48 16 26 1007.9 1008.3 0.0
17/06:30pm 4.6 -3.0 0.6 75 1.6 WSW 30 43 16 23 1007.9 1008.3 0.0
17/06:00pm 4.8 -2.1 0.4 73 1.7 W 26 41 14 22 1007.1 1007.4 0.0
17/05:51pm 5.0 -2.2 0.6 73 1.7 WSW 28 46 15 25 1007.0 1007.3 0.0
17/05:30pm 5.4 -3.5 0.8 72 1.8 W 37 54 20 29 1006.1 1006.4 0.0
17/05:00pm 5.8 -0.9 1.5 74 1.8 WSW 26 43 14 23 1005.6 1005.9 0.0
17/04:30pm 4.7 -3.0 3.4 91 0.5 WSW 33 57 18 31 1005.6 1005.9 0.0
17/04:27pm 4.7 -3.9 2.4 85 0.9 WSW 37 57 20 31 1005.9 1006.2 0.0
17/04:00pm 7.1 1.1 3.2 76 1.7 W 24 33 13 18 1005.2 1005.5 0.0
17/03:30pm 7.3 0.3 2.0 69 2.2 W 28 41 15 22 1005.0 1005.3 0.0
17/03:00pm 7.5 0.4 3.7 77 1.7 WSW 30 57 16 31 1004.5 1004.8 0.0
17/02:54pm 7.5 0.8 3.7 77 1.7 WSW 28 57 15 31 1004.5 1004.8 0.0
17/02:30pm 5.5 -0.1 3.3 86 0.9 WSW 22 26 12 14 1004.5 1004.8 0.0
17/02:00pm 7.1 -2.5 3.2 76 1.7 WSW 43 65 23 35 1004.0 1004.3 0.0
17/01:45pm 7.4 0.6 3.1 74 1.8 WSW 28 52 15 28 1003.9 1004.2 0.0
17/01:30pm 6.0 -1.5 4.2 88 0.8 SW 33 46 18 25 1004.1 1004.4 0.0
17/01:00pm 8.8 3.1 2.8 66 2.6 SW 22 33 12 18 1003.6 1003.9 0.0
17/12:30pm 7.7 1.7 3.6 75 1.8 W 24 37 13 20 1003.6 1003.9 0.0
17/12:00pm 6.7 1.6 3.1 78 1.5 WNW 19 26 10 14 1003.5 1003.8 0.0
17/11:30am 7.0 -0.6 4.1 82 1.3 WSW 33 52 18 28 1004.4 1004.7 0.0
17/11:14am 9.3 2.5 2.9 64 2.8 WSW 28 46 15 25 1004.0 1004.3 0.0
17/11:00am 9.2 3.2 3.2 66 2.6 W 24 37 13 20 1003.9 1004.2 0.0
17/10:30am 8.4 2.6 4.2 75 1.9 W 24 39 13 21 1004.3 1004.6 0.0
17/10:00am 8.1 2.0 4.7 79 1.5 W 26 39 14 21 1004.5 1004.8 0.0
17/09:30am 8.2 4.2 6.7 90 0.7 WNW 17 24 9 13 1004.7 1005.0 0.0
17/09:00am 6.8 3.2 6.8 100 0.0 WNW 15 22 8 12 1005.2 1005.5 15.8
17/08:30am 7.6 4.2 7.6 100 0.0 NW 15 19 8 10 1005.3 1005.6 15.6
17/08:00am 5.6 2.9 5.6 100 0.0 N 9 11 5 6 1005.4 1005.7 15.6
17/07:30am 4.3 1.3 4.3 100 0.0 NNW 9 13 5 7 1005.4 1005.7 15.6
17/07:00am 3.3 0.5 3.3 100 0.0 NNW 7 11 4 6 1005.6 1005.9 15.6
17/06:30am 3.8 0.7 3.8 100 0.0 NNW 9 11 5 6 1005.8 1006.1 15.6
17/06:00am 3.3 0.5 3.3 100 0.0 NNW 7 9 4 5 1005.9 1006.2 15.6
17/05:30am 3.7 1.2 3.7 100 0.0 NNW 6 7 3 4 1006.1 1006.4 15.6
17/05:00am 3.8 1.3 3.8 100 0.0 NNW 6 7 3 4 1006.3 1006.6 15.6
17/04:30am 3.5 0.8 3.5 100 0.0 NNW 7 9 4 5 1006.5 1006.8 15.6
17/04:00am 3.4 -0.5 3.4 100 0.0 NNW 13 17 7 9 1006.6 1006.9 15.6
17/03:30am 3.0 -0.6 3.0 100 0.0 NNW 11 13 6 7 1006.8 1007.1 15.6
17/03:00am 3.5 0.4 3.5 100 0.0 NNW 9 13 5 7 1007.2 1007.5 15.6
17/02:30am 3.7 0.6 3.7 100 0.0 NNW 9 11 5 6 1007.4 1007.7 15.6
17/02:00am 3.7 1.0 3.7 100 0.0 NNW 7 9 4 5 1007.6 1007.9 15.4
17/01:30am 3.4 -0.1 3.4 100 0.0 NNW 11 13 6 7 1008.1 1008.5 15.4
17/01:00am 3.3 0.1 3.3 100 0.0 NW 9 9 5 5 1008.2 1008.6 15.4
17/12:30am 4.4 3.2 4.4 100 0.0 CALM 0 0 0 0 1008.1 1008.5 15.4
17/12:00am 4.3 2.7 4.3 100 0.0 N 2 4 1 2 1008.1 1008.5 15.4
 
Date/Time
EST
Temp
°C
App
Temp
°C
Dew
Point
Rel
Hum
%
Delta-T
°C
Wind Press
QNH
hPa
Press
MSL
hPa
Rain
since 9 am
mm
Dir
 
Spd
km/h
Gust
km/h
Spd
kts
Gust
kts
16/11:30pm 4.4 2.4 4.4 100 0.0 N 4 6 2 3 1008.5 1008.8 15.4
16/11:00pm 4.8 2.5 4.8 100 0.0 NNW 6 7 3 4 1008.9 1009.2 15.4
16/10:30pm 4.8 1.9 4.8 100 0.0 NNW 9 13 5 7 1009.0 1009.3 15.4
16/10:00pm 4.5 2.1 4.5 100 0.0 N 6 7 3 4 1009.0 1009.3 15.4
16/09:30pm 3.7 1.0 3.7 100 0.0 NNW 7 9 4 5 1009.5 1009.8 15.4
16/09:00pm 4.0 1.5 4.0 100 0.0 WNW 6 7 3 4 1009.6 1009.9 15.4
16/08:30pm 5.0 3.9 5.0 100 0.0 CALM 0 0 0 0 1009.6 1009.9 15.4
16/08:00pm 6.3 5.5 6.3 100 0.0 CALM 0 0 0 0 1009.5 1009.8 15.4
16/07:30pm 6.4 5.2 6.4 100 0.0 E 2 4 1 2 1009.6 1009.9 15.4
16/07:00pm 6.6 5.4 6.6 100 0.0 S 2 4 1 2 1009.4 1009.7 15.4
16/06:30pm 6.8 5.7 6.8 100 0.0 SSE 2 4 1 2 1009.3 1009.6 15.4
16/06:00pm 7.2 5.8 7.2 100 0.0 SSE 4 6 2 3 1009.5 1009.8 15.4
16/05:30pm 7.4 5.7 7.4 100 0.0 SE 6 7 3 4 1009.5 1009.8 15.4
16/05:00pm 7.5 5.2 7.5 100 0.0 SE 9 11 5 6 1009.3 1009.6 15.4
16/04:30pm 7.5 5.6 7.5 100 0.0 SE 7 9 4 5 1009.3 1009.6 15.4
16/04:00pm 7.4 5.6 7.3 99 0.0 SE 6 7 3 4 1009.4 1009.7 15.4
16/03:30pm 7.3 5.9 7.3 100 0.0 E 4 6 2 3 1009.4 1009.7 15.2
16/03:00pm 7.1 6.0 7.1 100 0.0 ENE 2 4 1 2 1009.7 1010.0 15.2
16/02:30pm 6.8 6.0 6.7 99 0.0 CALM 0 2 0 1 1009.9 1010.2 14.4
16/02:00pm 6.6 5.8 6.5 99 0.0 CALM 0 0 0 0 1010.3 1010.6 12.6
16/01:30pm 6.5 4.9 6.4 99 0.0 ESE 4 6 2 3 1010.3 1010.6 11.6
16/01:00pm 6.6 4.5 6.5 99 0.0 SE 7 9 4 5 1010.3 1010.6 10.2
16/12:30pm 6.7 4.8 6.6 99 0.0 SE 6 9 3 5 1010.8 1011.2 8.0
16/12:00pm 7.1 4.7 7.0 99 0.0 SE 9 13 5 7 1010.9 1011.3 7.2
16/11:30am 7.2 4.1 7.2 100 0.0 SE 13 17 7 9 1010.9 1011.3 6.2
16/11:00am 7.2 4.4 7.1 99 0.0 SE 11 15 6 8 1011.5 1011.9 3.4
16/10:30am 7.6 5.2 7.2 97 0.2 SSE 9 13 5 7 1012.0 1012.3 1.8
16/10:00am 7.8 5.0 6.9 94 0.4 SE 11 13 6 7 1012.4 1012.7 0.6
16/09:30am 7.8 4.8 6.1 89 0.8 SE 11 15 6 8 1012.4 1012.7 0.0
16/09:00am 7.9 4.9 6.2 89 0.8 SE 11 15 6 8 1012.5 1012.8 0.2
16/08:30am 7.7 4.8 6.5 92 0.6 SE 11 13 6 7 1012.7 1013.0 0.2
16/08:00am 7.6 4.6 6.2 91 0.6 SSE 11 15 6 8 1012.8 1013.1 0.2
16/07:30am 6.6 4.4 6.0 96 0.3 SSE 7 9 4 5 1012.8 1013.1 0.2
16/07:00am 6.1 4.0 6.0 99 0.0 ESE 6 7 3 4 1012.9 1013.2 0.2
16/06:30am 5.9 3.8 5.8 99 0.0 SE 6 7 3 4 1012.9 1013.2 0.0
16/06:00am 5.8 4.1 5.7 99 0.0 ESE 4 6 2 3 1012.9 1013.2 0.0
16/05:30am 6.1 3.8 5.8 98 0.1 SSE 7 9 4 5 1012.8 1013.1 0.0
16/05:00am 6.2 4.5 5.8 97 0.2 SSE 4 6 2 3 1012.9 1013.2 0.0
16/04:30am 6.4 4.6 5.2 92 0.5 SE 4 4 2 2 1012.9 1013.2 0.0
16/04:00am 6.5 4.3 5.1 91 0.6 S 6 7 3 4 1013.0 1013.3 0.0
16/03:30am 6.1 5.0 5.1 93 0.4 CALM 0 2 0 1 1013.0 1013.3 0.0
16/03:00am 6.2 4.4 5.3 94 0.4 SE 4 6 2 3 1013.1 1013.4 0.0
16/02:30am 6.1 3.9 5.2 94 0.4 S 6 9 3 5 1013.4 1013.8 0.0
16/02:00am 6.2 3.8 5.2 93 0.4 SSE 7 9 4 5 1013.6 1014.0 0.0
16/01:30am 6.3 4.0 5.6 95 0.3 SE 7 7 4 4 1014.0 1014.4 0.0
16/01:00am 6.2 4.0 5.2 93 0.4 SE 6 7 3 4 1014.4 1014.8 0.0
16/12:30am 6.5 4.7 5.6 94 0.4 SE 4 6 2 3 1014.6 1015.0 0.0
16/12:00am 6.9 5.1 5.5 91 0.6 ESE 4 4 2 2 1014.8 1015.2 0.0
 
Date/Time
EST
Temp
°C
App
Temp
°C
Dew
Point
Rel
Hum
%
Delta-T
°C
Wind Press
QNH
hPa
Press
MSL
hPa
Rain
since 9 am
mm
Dir
 
Spd
km/h
Gust
km/h
Spd
kts
Gust
kts
15/11:30pm 6.7 4.5 6.3 97 0.2 SE 7 9 4 5 1014.7 1015.1 0.0
15/11:00pm 6.8 4.6 6.1 95 0.3 SSE 7 9 4 5 1015.0 1015.4 0.0
15/10:30pm 7.5 6.5 5.6 88 0.9 CALM 0 6 0 3 1015.3 1015.7 0.0
15/10:00pm 7.8 6.8 5.8 87 0.9 CALM 0 0 0 0 1015.6 1015.9 0.0
15/09:30pm 7.5 5.8 6.0 90 0.7 E 4 7 2 4 1015.8 1016.1 0.0
15/09:00pm 7.5 6.2 6.0 90 0.7 NE 2 7 1 4 1015.8 1016.1 0.0
15/08:30pm 7.5 6.2 5.8 89 0.8 NE 2 6 1 3 1015.9 1016.2 0.0
15/08:00pm 7.2 6.2 5.7 90 0.7 CALM 0 0 0 0 1016.0 1016.3 0.0
15/07:30pm 7.5 6.5 5.6 88 0.9 CALM 0 0 0 0 1015.9 1016.2 0.0
15/07:00pm 7.9 6.9 5.7 86 1.0 CALM 0 0 0 0 1015.6 1015.9 0.0
15/06:30pm 8.1 7.1 5.4 83 1.2 CALM 0 0 0 0 1015.3 1015.7 0.0
15/06:00pm 8.3 6.2 5.8 84 1.2 N 6 7 3 4 1015.2 1015.6 0.0
15/05:30pm 8.6 6.9 5.7 82 1.3 N 4 7 2 4 1015.1 1015.5 0.0
15/05:00pm 9.2 6.6 5.9 80 1.5 N 9 11 5 6 1015.0 1015.4 0.0
15/04:30pm 9.6 6.9 5.4 75 1.9 NNW 9 13 5 7 1015.0 1015.4 0.0
15/04:00pm 10.0 6.2 6.0 76 1.9 NNW 15 20 8 11 1015.0 1015.4 0.0
15/03:30pm 10.1 5.8 5.3 72 2.2 NNW 17 20 9 11 1015.0 1015.4 0.0
15/03:00pm 11.4 8.0 5.7 68 2.7 NNW 13 20 7 11 1015.0 1015.4 0.0
15/02:30pm 11.5 7.5 4.7 63 3.1 NNW 15 20 8 11 1015.3 1015.7 0.0
15/02:00pm 11.8 8.0 5.9 67 2.8 NNW 15 22 8 12 1015.4 1015.8 0.0
15/01:30pm 12.1 9.5 5.9 66 3.0 NNW 9 17 5 9 1015.7 1016.0 0.0
15/01:00pm 11.9 9.4 4.9 62 3.3 NW 7 17 4 9 1016.0 1016.3 0.0
15/12:30pm 11.4 9.0 4.2 61 3.3 NW 6 11 3 6 1016.4 1016.8 0.0
15/12:00pm 11.4 8.2 5.3 66 2.8 N 11 17 6 9 1016.8 1017.2 0.0
15/11:30am 10.9 8.3 4.1 63 3.1 E 7 9 4 5 1017.1 1017.5 0.0
15/11:00am 10.0 7.0 1.9 57 3.5 E 7 13 4 7 1017.3 1017.7 0.0
15/10:30am 9.4 5.2 1.6 58 3.3 ESE 13 17 7 9 1017.6 1018.0 0.0
15/10:00am 8.6 4.4 1.7 62 2.9 ESE 13 19 7 10 1018.0 1018.4 0.0
15/09:30am 7.9 3.4 2.4 68 2.3 SE 15 20 8 11 1018.1 1018.5 0.0
15/09:00am 6.5 1.5 1.6 71 2.0 SE 17 22 9 12 1018.4 1018.8 0.0
15/08:30am 5.7 1.8 1.2 73 1.8 ESE 11 19 6 10 1018.6 1019.0 0.0
15/08:00am 4.4 0.1 0.7 77 1.4 SE 13 17 7 9 1018.3 1018.7 0.0
15/07:30am 2.7 -1.0 0.1 83 1.0 SE 9 11 5 6 1018.3 1018.7 0.0
15/07:00am 1.8 -2.0 -0.6 84 0.9 SE 9 13 5 7 1018.0 1018.4 0.0
15/06:30am 0.1 -3.4 -1.0 92 0.4 SE 7 9 4 5 1017.8 1018.2 0.0
15/06:00am -0.1 -3.6 -1.7 89 0.6 SSE 7 9 4 5 1017.5 1017.9 0.0
15/05:30am -0.6 -3.8 -0.7 99 0.0 SE 6 7 3 4 1017.3 1017.7 0.0
15/05:00am 0.5 -3.3 -1.1 89 0.6 SSW 9 11 5 6 1017.4 1017.8 0.0
15/04:30am 0.4 -2.9 -0.9 91 0.5 SSW 6 7 3 4 1017.5 1017.9 0.0
15/04:00am 0.8 -1.6 -0.2 93 0.4 SSE 2 4 1 2 1017.3 1017.7 0.0
15/03:30am 0.6 -2.6 -0.4 93 0.4 SSE 6 7 3 4 1017.3 1017.7 0.0
15/03:00am 1.6 -0.8 -0.2 88 0.7 SE 2 4 1 2 1017.6 1018.0 0.0
15/02:30am 2.4 0.4 -0.4 82 1.0 CALM 0 0 0 0 1017.5 1017.9 0.0
15/02:00am 1.7 -1.0 0.2 90 0.6 ENE 4 6 2 3 1017.7 1018.1 0.0
15/01:30am 2.9 1.0 0.3 83 1.0 CALM 0 2 0 1 1017.7 1018.1 0.0
15/01:00am 2.8 0.4 0.0 82 1.1 W 2 4 1 2 1017.9 1018.3 0.0
15/12:30am 4.2 2.3 0.4 76 1.5 CALM 0 0 0 0 1018.0 1018.4 0.0
15/12:00am 3.3 0.0 0.0 79 1.3 WSW 7 7 4 4 1017.8 1018.2 0.0
 
Date/Time
EST
Temp
°C
App
Temp
°C
Dew
Point
Rel
Hum
%
Delta-T
°C
Wind Press
QNH
hPa
Press
MSL
hPa
Rain
since 9 am
mm
Dir
 
Spd
km/h
Gust
km/h
Spd
kts
Gust
kts
14/11:30pm 4.4 1.6 -0.4 71 1.8 SSE 4 6 2 3 1018.0 1018.4 0.0

Other Formats:

Comma delimited format used in spreadsheet applications
http://www.bom.gov.au/fwo/IDT60801/IDT60801.94955.axf

JavaScript Object Notation format (JSON) in row-major order
http://www.bom.gov.au/fwo/IDT60801/IDT60801.94955.json